Portada
METAR-TAF:

METAR-TAF

Aeropuertos :

Clinton Municipal Airport

Clinton, Iowa, Estados Unidos

latitud: 41-50N, longitud: 090-20W, altitud: 216 m

Observación

El informe se hizo hace 45 minutos, a las 06:56 UTC
Viento 6 kt del norte-noreste
Temperatura 11°C
Humedad 82%
Presión 1025 hPa
Visibilidad: 16.1 km
Cielo despejado

METAR: KCWI 310656Z AUTO 02006KT 10SM CLR 11/08 A3026 RMK AO2 SLP250 T01060083 PNO $

Hora: 02:41 (07:41 UTC)


TAF: falta

Observaciones y pronósticos meteorológicos de más de 4000 aeropuertos (mensajes METAR y TAF).

Los puntos amarillos y rojos representan las estaciones disponibles.

Ponga el ratón en el punto deseado para ver el nombre de la estación.

Haga clic para ver las observaciones y los pronósticos meteorológicos.

Para cambiar el mapa : haga clic en los botones verdes con una cruz de color negro para hacer un zoom, en el botón verde con un guión para alejar o en las flechas verdes para mapas adyacentes.


METAR-TAF: